Friday, October 24, 2014
10:25 UTC
  |  Log In   |  Register Free
Airport Search:

Lewis University Airport
(KLOT)

Lewis University Airport Diagram
No Airport Diagram Available

FAA data valid effective September 18, 2014 - November 13, 2014 (unless otherwise noted).

 
 
 
 
 
 
 
 
 
 
 
 
 
 

Current Aviation Weather for Lewis University Airport (KLOT)

The most recent METAR observation for KLOT was updated at: 1011
METAR Summary (Translated METAR)
KLOT
240955Z AUTO 18003KT 10SM OVC027 10/08 A3006 RMK AO2 T00970077
KJOT
240955Z AUTO 00000KT 10SM SCT029 08/07 A3006 RMK AO2 T00770072
(6.4 nm SW from KLOT)
KC09
240955Z AUTO 20003KT 10SM OVC029 09/09 A3006 RMK AO2 T00940086
(18.2 nm SW from KLOT)
TAF
No TAF information found within 50 nm of KLOT
  Airport Weather Conditions for KLOT

 Current Weather at LOT
49° F
Overcast
South winds at 4.6 mph
LOT NOAA Radar

Pressure: 30.06 in
Humidity: 90%
Wind: South at 4.6 MPH (4 KT)
Dew Point: 46.0°F
Visibility: 10.00 mi


Airport Weather Forecast for KLOT

Translated METAR and TAF for KLOT
Translated METAR for KLOT (1020 UTC 24 October 2014)
found at http://aviationweather.gov/adds/metars/
 
METAR text: KLOT 240955Z AUTO 18003KT 10SM OVC027 10/08 A3006 RMK AO2 T00970077
Conditions at: KLOT (ROMEOVILLE/CHI , IL, US) observed 0955 UTC 24 October 2014
Temperature: 9.7°C (49°F)
Dewpoint: 7.7°C (46°F) [RH = 87%]
Pressure (altimeter): 30.06 inches Hg (1018.0 mb)
Winds: from the S (180 degrees) at 3 MPH (3 knots; 1.6 m/s)
Visibility: 10 or more miles (16+ km)
Ceiling: 2700 feet AGL
Clouds: overcast cloud deck at 2700 feet AGL
Weather: automated observation with no human augmentation;
there may or may not be significant weather present at this time
Translated TAF for KLOT

There is no translated TAF available for this airport

Find All Airport Services Find A Hotel Find A Rental Car Find A Golf Course Find A Restaurant $100 Hamburger



FBO's on the Field
FBO Company Facility Photos Services Transportation Aviation Fuel Prices: Prices include tax
Catering Weather Repair Courtesy Rental Type 100LL JetA JetA+ MOGAS 8087
 
Lewis University Airport

This FBO has not yet been rated
FS: Phillips 66
Last Updated: Oct-10
Login to update fuel prices
SS:
Contact Lewis University AirportMore FBO Information
 
Add another FBO Facility Photos Catering Weather Repair Courtesy Rental Type 100LL JetA JetA+ MOGAS 8087
Services Transportation Aviation Fuel Prices: Prices include tax


model-print
model-print
model-print
model-print